Time;durP1;ratioP1;P1;durP2;ratioP2;P2;SDS_P1;SDS_P2;PMS_P1;PMS_P2;Temp;Humidity;BMP_temperature;BMP_pressure;BME280_temperature;BME280_humidity;BME280_pressure;Samples;Min_cycle;Max_cycle;Signal;HPM_P1;HPM_P2
2024/02/11 00:01:38;;;;;;;16.98;14.02;;;10.50;99.90;;;;;;4942296;28;20038;-74
2024/02/11 00:04:05;;;;;;;16.77;12.15;;;10.50;99.90;;;;;;4944476;28;20043;-74
2024/02/11 00:06:32;;;;;;;17.98;13.27;;;10.50;99.90;;;;;;4940971;28;20053;-73
2024/02/11 00:08:59;;;;;;;15.57;11.40;;;10.50;99.90;;;;;;4933149;28;20043;-74
2024/02/11 00:11:28;;;;;;;16.60;12.90;;;10.50;99.90;;;;;;4963619;28;20031;-73
2024/02/11 00:13:55;;;;;;;13.32;11.63;;;10.50;99.90;;;;;;4947316;28;20566;-73
2024/02/11 00:16:23;;;;;;;15.45;12.90;;;10.50;99.90;;;;;;4947096;28;20046;-73
2024/02/11 00:18:50;;;;;;;15.60;13.30;;;10.50;99.90;;;;;;4945244;28;20044;-73
2024/02/11 00:21:17;;;;;;;20.98;14.80;;;10.50;99.90;;;;;;4946673;28;20125;-73
2024/02/11 00:23:44;;;;;;;19.77;14.88;;;10.40;99.90;;;;;;4951274;28;20055;-73
2024/02/11 00:26:11;;;;;;;15.80;13.10;;;10.50;99.90;;;;;;4948561;28;20054;-74
2024/02/11 00:28:39;;;;;;;19.58;16.63;;;10.40;99.90;;;;;;4950964;28;20043;-74
2024/02/11 00:31:06;;;;;;;16.45;12.60;;;10.40;99.90;;;;;;4942907;28;20039;-73
2024/02/11 00:33:33;;;;;;;21.05;16.23;;;10.40;99.90;;;;;;4949017;28;20049;-73
2024/02/11 00:36:01;;;;;;;16.15;13.50;;;10.40;99.90;;;;;;4945935;28;20237;-74
2024/02/11 00:38:28;;;;;;;18.42;15.75;;;10.40;99.90;;;;;;4953823;28;20050;-73
2024/02/11 00:40:55;;;;;;;17.65;14.50;;;10.40;99.90;;;;;;4940528;28;20031;-74
2024/02/11 00:43:22;;;;;;;15.73;13.57;;;10.40;99.90;;;;;;4928047;28;20097;-73
2024/02/11 00:45:48;;;;;;;19.13;14.93;;;10.40;99.90;;;;;;4938526;28;21023;-73
2024/02/11 00:48:15;;;;;;;19.05;13.82;;;10.40;99.90;;;;;;4953308;28;20050;-74
2024/02/11 00:50:43;;;;;;;18.30;15.30;;;10.50;99.90;;;;;;4949663;28;20057;-73
2024/02/11 00:53:10;;;;;;;18.48;15.65;;;10.50;99.90;;;;;;4942548;28;20043;-74
2024/02/11 00:55:37;;;;;;;18.83;14.55;;;10.50;99.90;;;;;;4965121;28;20039;-73
2024/02/11 00:58:04;;;;;;;17.58;15.35;;;10.60;99.90;;;;;;4947806;28;20054;-74
2024/02/11 01:00:33;;;;;;;17.02;14.40;;;10.50;99.90;;;;;;4951683;28;20043;-73
2024/02/11 01:03:00;;;;;;;19.35;14.57;;;10.40;99.90;;;;;;4951187;28;20043;-74
2024/02/11 01:05:29;;;;;;;18.67;14.98;;;10.50;99.90;;;;;;4944806;28;20055;-73
2024/02/11 01:07:56;;;;;;;19.17;14.70;;;10.40;99.90;;;;;;4932767;28;20380;-74
2024/02/11 01:10:25;;;;;;;17.88;14.20;;;10.40;99.90;;;;;;4925935;28;20139;-73
2024/02/11 01:12:52;;;;;;;17.90;15.10;;;10.40;99.90;;;;;;4937543;28;20027;-73
2024/02/11 01:15:19;;;;;;;21.02;15.52;;;10.40;99.90;;;;;;4929536;28;20064;-72
2024/02/11 01:17:48;;;;;;;17.75;15.15;;;10.30;99.90;;;;;;4946518;28;20043;-73
2024/02/11 01:20:16;;;;;;;19.42;16.58;;;10.20;99.90;;;;;;4946115;28;20050;-76
2024/02/11 01:22:46;;;;;;;20.70;16.67;;;10.30;99.90;;;;;;4948625;28;20047;-72
2024/02/11 01:25:19;;;;;;;22.50;14.73;;;10.20;99.90;;;;;;4944321;28;20047;-74
2024/02/11 01:27:50;;;;;;;21.48;15.98;;;10.20;99.90;;;;;;4949604;28;20129;-75
2024/02/11 01:30:20;;;;;;;19.42;14.35;;;10.10;99.90;;;;;;4941482;28;20057;-75
2024/02/11 01:32:48;;;;;;;22.45;16.30;;;10.10;99.90;;;;;;4952094;28;20062;-73
2024/02/11 01:35:15;;;;;;;19.90;15.98;;;10.20;99.90;;;;;;4941951;28;20055;-73
2024/02/11 01:37:43;;;;;;;21.55;16.83;;;10.20;99.90;;;;;;4927278;28;20062;-74
2024/02/11 01:40:17;;;;;;;22.70;16.95;;;10.20;99.90;;;;;;4920666;28;20055;-74
2024/02/11 01:42:45;;;;;;;23.63;16.52;;;10.30;99.90;;;;;;4932718;28;20060;-73
2024/02/11 01:45:14;;;;;;;26.17;17.88;;;10.30;99.90;;;;;;4933847;28;20044;-74
2024/02/11 01:47:44;;;;;;;21.20;17.08;;;10.20;99.90;;;;;;4949391;28;20142;-74
2024/02/11 01:50:15;;;;;;;25.52;19.63;;;10.30;99.90;;;;;;4942854;28;20053;-73
2024/02/11 01:52:43;;;;;;;23.17;17.92;;;10.30;99.90;;;;;;4951461;28;20066;-74
2024/02/11 01:55:12;;;;;;;23.30;18.48;;;10.40;99.90;;;;;;4941262;28;20085;-74
2024/02/11 01:57:42;;;;;;;27.02;19.48;;;10.40;99.90;;;;;;4949689;28;20047;-74
2024/02/11 02:00:10;;;;;;;23.50;18.35;;;10.30;99.90;;;;;;4943592;28;20042;-73
2024/02/11 02:02:38;;;;;;;23.83;18.55;;;10.30;99.90;;;;;;4941435;28;20644;-75
2024/02/11 02:05:07;;;;;;;31.88;23.25;;;10.30;99.90;;;;;;4941427;28;20050;-74
2024/02/11 02:07:34;;;;;;;30.60;21.08;;;10.20;99.90;;;;;;4945964;28;20725;-74
2024/02/11 02:10:02;;;;;;;26.70;20.90;;;10.30;99.90;;;;;;4945120;28;20297;-74
2024/02/11 02:12:28;;;;;;;31.92;22.45;;;10.30;99.90;;;;;;4941740;28;20043;-74
2024/02/11 02:14:55;;;;;;;29.65;21.67;;;10.20;99.90;;;;;;4942940;28;20046;-74
2024/02/11 02:17:22;;;;;;;29.13;21.05;;;10.20;99.90;;;;;;4961443;28;20061;-73
2024/02/11 02:19:51;;;;;;;28.35;20.92;;;10.10;99.90;;;;;;4946122;28;20055;-73
2024/02/11 02:22:21;;;;;;;30.17;20.88;;;10.10;99.90;;;;;;4939567;28;20412;-74
2024/02/11 02:24:50;;;;;;;32.50;21.13;;;10.10;99.90;;;;;;4944134;28;20042;-73
2024/02/11 02:27:17;;;;;;;31.10;20.30;;;10.00;99.90;;;;;;4925930;28;20055;-73
2024/02/11 02:29:44;;;;;;;31.17;21.83;;;9.90;99.90;;;;;;4944807;28;20031;-73
2024/02/11 02:32:11;;;;;;;31.92;21.77;;;10.00;99.90;;;;;;4957058;28;20023;-73
2024/02/11 02:34:40;;;;;;;33.70;21.60;;;10.00;99.90;;;;;;4942457;28;20043;-73
2024/02/11 02:37:07;;;;;;;34.33;22.08;;;9.90;99.90;;;;;;4924836;28;20118;-73
2024/02/11 02:39:35;;;;;;;34.72;22.15;;;9.90;99.90;;;;;;4925850;28;20062;-73
2024/02/11 02:42:03;;;;;;;34.95;21.88;;;9.90;99.90;;;;;;4939605;28;20071;-73
2024/02/11 02:44:33;;;;;;;35.97;22.20;;;9.80;99.90;;;;;;4947205;28;20138;-75
2024/02/11 02:47:00;;;;;;;35.20;22.88;;;9.70;99.90;;;;;;4948393;28;20097;-74
2024/02/11 02:49:26;;;;;;;37.55;23.17;;;9.80;99.90;;;;;;4967800;28;20633;-73
2024/02/11 02:51:56;;;;;;;37.05;23.67;;;9.80;99.90;;;;;;4954173;28;20039;-75
2024/02/11 02:54:23;;;;;;;36.33;22.67;;;9.80;99.90;;;;;;4953514;28;20039;-74
2024/02/11 02:56:50;;;;;;;34.17;22.48;;;9.80;99.90;;;;;;4952145;28;20520;-74
2024/02/11 02:59:17;;;;;;;35.70;22.80;;;9.80;99.90;;;;;;4945286;28;20142;-73
2024/02/11 03:01:46;;;;;;;41.13;24.95;;;9.80;99.90;;;;;;4969919;28;20698;-72
2024/02/11 03:04:14;;;;;;;37.35;22.80;;;9.90;99.90;;;;;;4952584;28;20565;-75
2024/02/11 03:06:41;;;;;;;38.97;24.05;;;9.90;99.90;;;;;;4947380;28;20049;-73
2024/02/11 03:09:08;;;;;;;33.00;22.15;;;9.90;99.90;;;;;;4942841;28;20514;-73
2024/02/11 03:11:37;;;;;;;34.13;22.25;;;9.80;99.90;;;;;;4964366;28;20133;-73
2024/02/11 03:17:36;;;;;;;38.38;24.75;;;9.80;99.90;;;;;;4943413;28;20142;-74
2024/02/11 03:20:03;;;;;;;38.33;24.10;;;9.80;99.90;;;;;;4951125;28;20125;-74
2024/02/11 03:22:30;;;;;;;36.92;23.92;;;9.80;99.90;;;;;;4946338;28;20541;-73
2024/02/11 03:24:59;;;;;;;36.45;23.67;;;9.70;99.90;;;;;;4949893;28;20155;-73
2024/02/11 03:27:28;;;;;;;40.40;25.52;;;9.70;99.90;;;;;;4948258;28;20098;-73
2024/02/11 03:29:55;;;;;;;39.20;24.70;;;9.70;99.90;;;;;;4945151;28;20047;-73
2024/02/11 03:32:22;;;;;;;42.67;25.15;;;9.70;99.90;;;;;;4923886;28;20055;-73
2024/02/11 03:34:49;;;;;;;39.65;22.75;;;9.70;99.90;;;;;;4927230;28;20133;-74
2024/02/11 03:37:16;;;;;;;40.25;24.88;;;9.70;99.90;;;;;;4931557;28;20131;-74
2024/02/11 03:39:43;;;;;;;43.15;25.65;;;9.60;99.90;;;;;;4933358;28;20047;-74
2024/02/11 03:42:10;;;;;;;44.03;25.92;;;9.70;99.90;;;;;;4951192;28;20106;-74
2024/02/11 03:44:37;;;;;;;44.28;27.27;;;9.70;99.90;;;;;;4942399;28;20089;-75
2024/02/11 03:47:04;;;;;;;41.20;26.35;;;9.60;99.90;;;;;;4934577;28;20702;-72
2024/02/11 03:49:30;;;;;;;43.83;26.77;;;9.70;99.90;;;;;;4925783;28;20455;-73
2024/02/11 03:51:57;;;;;;;42.33;24.23;;;9.60;99.90;;;;;;4942729;28;20561;-75
2024/02/11 03:54:24;;;;;;;41.30;24.50;;;9.60;99.90;;;;;;4951660;28;20063;-75
2024/02/11 03:56:51;;;;;;;39.30;23.92;;;9.60;99.90;;;;;;4950487;28;20105;-72
2024/02/11 03:59:20;;;;;;;39.95;23.15;;;9.50;99.90;;;;;;4949998;28;20062;-74
2024/02/11 04:01:47;;;;;;;44.80;25.77;;;9.50;99.90;;;;;;4954111;28;20544;-75
2024/02/11 04:04:14;;;;;;;40.85;25.60;;;9.50;99.90;;;;;;4948138;28;20156;-74
2024/02/11 04:06:41;;;;;;;45.38;27.45;;;9.60;99.90;;;;;;4947253;28;20054;-75
2024/02/11 04:09:09;;;;;;;49.03;28.08;;;9.60;99.90;;;;;;4949155;28;20194;-74
2024/02/11 04:11:35;;;;;;;47.83;27.63;;;9.60;99.90;;;;;;4945855;28;20050;-75
2024/02/11 04:14:05;;;;;;;45.72;28.35;;;9.70;99.90;;;;;;4932986;28;20061;-74
2024/02/11 04:16:33;;;;;;;46.28;28.08;;;9.80;99.90;;;;;;4940541;28;20047;-74
2024/02/11 04:19:01;;;;;;;52.08;29.75;;;9.60;99.90;;;;;;4952196;28;20702;-74
2024/02/11 04:21:35;;;;;;;47.78;29.55;;;9.70;99.90;;;;;;4947709;28;20046;-74
2024/02/11 04:24:04;;;;;;;50.30;28.80;;;9.80;99.90;;;;;;4950276;28;20137;-73
2024/02/11 04:26:33;;;;;;;50.53;28.23;;;9.70;99.90;;;;;;4938907;28;20039;-73
2024/02/11 04:28:59;;;;;;;49.53;28.58;;;9.70;99.90;;;;;;4946462;28;20925;-73
2024/02/11 04:31:28;;;;;;;48.50;30.90;;;9.80;99.90;;;;;;4948609;28;20572;-74
2024/02/11 04:33:55;;;;;;;50.83;30.77;;;9.80;99.90;;;;;;4949099;28;20078;-73
2024/02/11 04:36:24;;;;;;;52.03;30.60;;;9.70;99.90;;;;;;4933993;28;20047;-75
2024/02/11 04:38:50;;;;;;;53.83;32.28;;;9.70;99.90;;;;;;4925908;28;20059;-74
2024/02/11 04:41:17;;;;;;;56.47;32.95;;;9.60;99.90;;;;;;4936019;28;20043;-73
2024/02/11 04:43:48;;;;;;;53.97;31.77;;;9.60;99.90;;;;;;4946042;28;20067;-73
2024/02/11 04:46:16;;;;;;;55.60;32.65;;;9.70;99.90;;;;;;4951434;28;20106;-73
2024/02/11 04:48:43;;;;;;;61.15;33.38;;;9.70;99.90;;;;;;4927628;28;20606;-73
2024/02/11 04:51:14;;;;;;;59.97;33.60;;;9.30;99.90;;;;;;4936029;28;20043;-73
2024/02/11 04:53:41;;;;;;;56.92;33.38;;;9.40;99.90;;;;;;4955013;28;20690;-73
2024/02/11 04:56:10;;;;;;;59.72;31.88;;;9.40;99.90;;;;;;4940974;28;20047;-73
2024/02/11 04:58:38;;;;;;;59.20;32.88;;;9.50;99.90;;;;;;4935257;28;20048;-73
2024/02/11 05:01:05;;;;;;;63.13;33.25;;;9.40;99.90;;;;;;4930079;28;20040;-73
2024/02/11 05:03:32;;;;;;;67.50;35.38;;;9.40;99.90;;;;;;4927372;28;20116;-73
2024/02/11 05:06:00;;;;;;;65.78;34.92;;;9.30;99.90;;;;;;4931070;28;20043;-73
2024/02/11 05:08:28;;;;;;;67.40;36.22;;;9.30;99.90;;;;;;4943303;28;20535;-73
2024/02/11 05:10:55;;;;;;;66.53;37.08;;;9.20;99.90;;;;;;4963896;28;20044;-73
2024/02/11 05:13:27;;;;;;;70.53;36.35;;;9.20;99.90;;;;;;4943450;28;20054;-73
2024/02/11 05:15:57;;;;;;;61.92;34.63;;;9.20;99.90;;;;;;4942589;28;20134;-73
2024/02/11 05:18:24;;;;;;;67.45;35.33;;;9.20;99.90;;;;;;4953630;28;20134;-73
2024/02/11 05:20:51;;;;;;;65.40;34.88;;;9.20;99.90;;;;;;4948117;28;20055;-73
2024/02/11 05:23:19;;;;;;;63.95;37.10;;;9.10;99.90;;;;;;4948973;28;20127;-73
2024/02/11 05:25:46;;;;;;;68.28;34.17;;;9.20;99.90;;;;;;4928296;28;20086;-73
2024/02/11 05:28:15;;;;;;;65.63;37.22;;;9.20;99.90;;;;;;4950135;28;20051;-73
2024/02/11 05:30:45;;;;;;;75.82;36.67;;;9.20;99.90;;;;;;4946972;28;20534;-73
2024/02/11 05:33:17;;;;;;;74.90;38.80;;;9.10;99.90;;;;;;4949111;28;20070;-73
2024/02/11 05:35:46;;;;;;;71.70;38.97;;;9.10;99.90;;;;;;4957283;28;20056;-73
2024/02/11 05:38:13;;;;;;;71.88;36.67;;;9.20;99.90;;;;;;4950837;28;20055;-73
2024/02/11 05:40:42;;;;;;;65.18;37.47;;;9.20;99.90;;;;;;4947555;28;20052;-73
2024/02/11 05:43:12;;;;;;;74.55;39.47;;;9.20;99.90;;;;;;4930491;28;20043;-73
2024/02/11 05:45:40;;;;;;;71.53;41.13;;;9.20;99.90;;;;;;4951990;28;20054;-73
2024/02/11 05:48:11;;;;;;;73.35;42.03;;;9.20;99.90;;;;;;4970445;28;20027;-73
2024/02/11 05:50:39;;;;;;;73.50;40.40;;;9.20;99.90;;;;;;4944478;28;20499;-73
2024/02/11 05:53:06;;;;;;;76.10;41.05;;;9.30;99.90;;;;;;4928111;28;20094;-73
2024/02/11 05:55:34;;;;;;;74.50;40.47;;;9.20;99.90;;;;;;4932230;28;20074;-73
2024/02/11 05:58:01;;;;;;;77.55;41.45;;;9.20;99.90;;;;;;4945270;28;20804;-73
2024/02/11 06:00:32;;;;;;;76.72;41.28;;;9.20;99.90;;;;;;4946406;28;20046;-73
2024/02/11 06:03:00;;;;;;;76.50;40.75;;;9.20;99.90;;;;;;4954178;28;20050;-73
2024/02/11 06:05:27;;;;;;;74.60;40.72;;;9.20;99.90;;;;;;4946713;28;20059;-73
2024/02/11 06:07:56;;;;;;;78.25;42.67;;;9.10;99.90;;;;;;4963361;28;20043;-73
2024/02/11 06:10:25;;;;;;;83.57;42.40;;;9.20;99.90;;;;;;4962091;28;20122;-74
2024/02/11 06:12:53;;;;;;;75.22;41.50;;;9.20;99.90;;;;;;4948500;28;20489;-73
2024/02/11 06:15:20;;;;;;;80.05;42.30;;;9.20;99.90;;;;;;4952562;28;20158;-73
2024/02/11 06:17:48;;;;;;;81.57;43.63;;;9.20;99.90;;;;;;4965939;28;20055;-74
2024/02/11 06:20:17;;;;;;;77.75;43.17;;;9.20;99.90;;;;;;4971392;28;20146;-73
2024/02/11 06:22:46;;;;;;;82.22;42.58;;;9.30;99.90;;;;;;4945661;28;20047;-74
2024/02/11 06:25:15;;;;;;;86.95;43.75;;;9.20;99.90;;;;;;4960177;28;20082;-73
2024/02/11 06:27:42;;;;;;;83.22;44.13;;;9.20;99.90;;;;;;4947665;28;20042;-73
2024/02/11 06:30:13;;;;;;;78.50;44.25;;;9.20;99.90;;;;;;4949536;28;20047;-75
2024/02/11 06:32:42;;;;;;;77.30;43.10;;;9.20;99.90;;;;;;4942676;28;20115;-75
2024/02/11 06:35:09;;;;;;;84.78;44.72;;;9.10;99.90;;;;;;4946962;28;20054;-75
2024/02/11 06:37:40;;;;;;;83.55;43.88;;;9.20;99.90;;;;;;4944766;28;20085;-73
2024/02/11 06:40:15;;;;;;;85.90;43.30;;;9.20;99.90;;;;;;4952857;28;20047;-73
2024/02/11 06:42:43;;;;;;;87.00;45.90;;;9.20;99.90;;;;;;4941278;28;20051;-73
2024/02/11 06:45:12;;;;;;;90.55;45.25;;;9.20;99.90;;;;;;4949568;28;20683;-73
2024/02/11 06:47:41;;;;;;;91.55;44.97;;;9.20;99.90;;;;;;4922760;28;20043;-74
2024/02/11 06:50:14;;;;;;;87.43;42.42;;;9.20;99.90;;;;;;4929922;28;20416;-75
2024/02/11 06:52:42;;;;;;;90.40;44.00;;;9.10;99.90;;;;;;4949367;28;20071;-72
2024/02/11 06:55:11;;;;;;;91.00;47.40;;;9.10;99.90;;;;;;4948007;28;20057;-72
2024/02/11 06:57:42;;;;;;;113.63;61.97;;;9.10;99.90;;;;;;4928095;28;20047;-73
2024/02/11 07:00:10;;;;;;;98.13;52.45;;;9.10;99.90;;;;;;4951668;28;20410;-72
2024/02/11 07:02:39;;;;;;;90.07;45.22;;;9.00;99.90;;;;;;4943961;28;20051;-75
2024/02/11 07:05:09;;;;;;;98.10;46.00;;;9.10;99.90;;;;;;4946460;28;20046;-75
2024/02/11 07:07:36;;;;;;;97.63;47.13;;;9.20;99.90;;;;;;4942226;28;20049;-75
2024/02/11 07:10:04;;;;;;;88.43;45.42;;;9.20;99.90;;;;;;4940581;28;20054;-73
2024/02/11 07:12:31;;;;;;;97.05;46.78;;;9.30;99.90;;;;;;4945955;28;20051;-73
2024/02/11 07:14:58;;;;;;;88.03;44.10;;;9.20;99.90;;;;;;4936699;28;20046;-72
2024/02/11 07:17:25;;;;;;;93.72;45.50;;;9.20;99.90;;;;;;4945593;28;20058;-74
2024/02/11 07:19:52;;;;;;;81.35;42.90;;;9.20;99.90;;;;;;4946053;28;20050;-74
2024/02/11 07:22:20;;;;;;;104.88;46.47;;;9.10;99.90;;;;;;4969786;28;20624;-74
2024/02/11 07:24:47;;;;;;;97.30;47.17;;;9.30;99.90;;;;;;4949645;28;20863;-73
2024/02/11 07:27:14;;;;;;;99.93;48.17;;;9.30;99.90;;;;;;4946848;28;20161;-73
2024/02/11 07:29:43;;;;;;;99.30;50.78;;;9.30;99.90;;;;;;4958487;28;20050;-73
2024/02/11 07:32:10;;;;;;;96.75;48.53;;;9.30;99.90;;;;;;4949327;28;20053;-73
2024/02/11 07:34:39;;;;;;;101.60;49.92;;;9.30;99.90;;;;;;4941692;28;20047;-73
2024/02/11 07:37:07;;;;;;;125.20;52.83;;;9.30;99.90;;;;;;4942367;28;20055;-74
2024/02/11 07:39:34;;;;;;;96.95;49.13;;;9.40;99.90;;;;;;4944328;28;20051;-73
2024/02/11 07:42:01;;;;;;;113.30;53.17;;;9.50;99.90;;;;;;4966633;28;20050;-73
2024/02/11 07:44:28;;;;;;;107.70;54.45;;;9.40;99.90;;;;;;4943086;28;20133;-73
2024/02/11 07:46:57;;;;;;;110.68;56.92;;;9.40;99.90;;;;;;4958523;28;20237;-73
2024/02/11 07:49:25;;;;;;;112.38;55.55;;;9.50;99.90;;;;;;4951619;28;20427;-73
2024/02/11 07:51:54;;;;;;;99.78;52.63;;;9.50;99.90;;;;;;4953983;28;20047;-74
2024/02/11 07:54:23;;;;;;;98.20;51.60;;;9.40;99.90;;;;;;4943565;28;20050;-72
2024/02/11 07:56:51;;;;;;;103.10;53.00;;;9.40;99.90;;;;;;4948588;28;20718;-71
2024/02/11 07:59:18;;;;;;;99.88;50.67;;;9.50;99.90;;;;;;4942440;28;20040;-72
2024/02/11 08:01:45;;;;;;;96.32;51.38;;;9.50;99.90;;;;;;4938280;28;20482;-74
2024/02/11 08:04:16;;;;;;;86.85;48.60;;;9.50;99.90;;;;;;4943846;28;20087;-73
2024/02/11 08:06:43;;;;;;;103.45;50.30;;;9.50;99.90;;;;;;4942801;28;20047;-74
2024/02/11 08:09:11;;;;;;;101.03;52.67;;;9.60;99.90;;;;;;4951013;28;20046;-72
2024/02/11 08:11:40;;;;;;;93.15;49.15;;;9.60;99.90;;;;;;4949045;28;20131;-72
2024/02/11 08:14:08;;;;;;;90.45;49.10;;;9.60;99.90;;;;;;4949793;28;20134;-72
2024/02/11 08:16:35;;;;;;;101.35;51.85;;;9.60;99.90;;;;;;4948784;28;20042;-72
2024/02/11 08:19:03;;;;;;;106.80;51.47;;;9.70;99.90;;;;;;4939962;28;20043;-72
2024/02/11 08:21:31;;;;;;;100.10;51.47;;;9.70;99.90;;;;;;4941486;28;20047;-72
2024/02/11 08:23:58;;;;;;;97.47;50.72;;;9.70;99.90;;;;;;4960545;28;20045;-72
2024/02/11 08:26:25;;;;;;;91.57;50.65;;;9.80;99.90;;;;;;4946288;28;20038;-72
2024/02/11 08:28:52;;;;;;;104.30;50.60;;;9.80;99.90;;;;;;4933206;28;20054;-71
2024/02/11 08:31:19;;;;;;;90.25;48.45;;;9.80;99.90;;;;;;4949014;28;20070;-72
2024/02/11 08:33:46;;;;;;;107.20;51.38;;;9.80;99.90;;;;;;4947264;28;20044;-72
2024/02/11 08:36:15;;;;;;;97.20;47.75;;;9.80;99.90;;;;;;4959192;28;20043;-72
2024/02/11 08:38:41;;;;;;;98.95;47.63;;;9.80;99.90;;;;;;4947349;28;20518;-74
2024/02/11 08:41:09;;;;;;;97.35;46.58;;;9.70;99.90;;;;;;4950306;28;20044;-74
2024/02/11 08:43:37;;;;;;;105.65;48.20;;;9.70;99.90;;;;;;4947407;28;20652;-71
2024/02/11 08:46:04;;;;;;;101.32;48.22;;;9.70;99.90;;;;;;4942535;28;20074;-71
2024/02/11 08:48:32;;;;;;;120.03;51.50;;;9.70;99.90;;;;;;4950720;28;20091;-72
2024/02/11 08:51:02;;;;;;;111.55;53.10;;;9.80;99.90;;;;;;4945595;28;20047;-73
2024/02/11 08:53:30;;;;;;;110.32;50.75;;;9.90;99.90;;;;;;4962727;28;20058;-72
2024/02/11 08:56:00;;;;;;;136.05;56.28;;;9.80;99.90;;;;;;4963575;28;20137;-71
2024/02/11 08:58:28;;;;;;;120.88;55.67;;;9.90;99.90;;;;;;4944658;28;20046;-71
2024/02/11 09:00:55;;;;;;;99.65;53.42;;;9.90;99.90;;;;;;4940460;28;20043;-71
2024/02/11 09:03:23;;;;;;;119.45;54.45;;;9.90;99.90;;;;;;4947596;28;20140;-72
2024/02/11 09:05:50;;;;;;;114.05;54.55;;;9.90;99.90;;;;;;4939338;28;20196;-71
2024/02/11 09:08:18;;;;;;;97.40;48.83;;;10.00;99.90;;;;;;4920276;28;20039;-74
2024/02/11 09:10:45;;;;;;;108.50;51.85;;;10.00;99.90;;;;;;4932536;28;20045;-71
2024/02/11 09:13:12;;;;;;;91.63;47.45;;;10.10;99.90;;;;;;4944725;28;20482;-72
2024/02/11 09:15:39;;;;;;;79.45;43.28;;;10.00;99.90;;;;;;4942703;28;20053;-71
2024/02/11 09:18:08;;;;;;;80.47;43.30;;;10.10;99.90;;;;;;4944127;28;20102;-73
2024/02/11 09:20:36;;;;;;;76.07;41.38;;;10.00;99.90;;;;;;4933958;28;20050;-71
2024/02/11 09:23:04;;;;;;;70.50;38.03;;;10.00;99.90;;;;;;4941122;28;20067;-73
2024/02/11 09:25:31;;;;;;;68.47;37.35;;;10.10;99.90;;;;;;4944435;28;20637;-74
2024/02/11 09:27:58;;;;;;;64.55;37.92;;;10.10;99.90;;;;;;4958250;28;20350;-73
2024/02/11 09:30:25;;;;;;;67.63;37.78;;;10.10;99.90;;;;;;4945128;28;20146;-73
2024/02/11 09:32:52;;;;;;;72.63;43.33;;;10.10;99.90;;;;;;4948446;28;20070;-73
2024/02/11 09:35:21;;;;;;;72.18;41.72;;;10.00;99.90;;;;;;4952515;28;20087;-73
2024/02/11 09:37:49;;;;;;;64.35;36.55;;;9.90;99.90;;;;;;4931688;28;20566;-73
2024/02/11 09:40:17;;;;;;;66.75;39.45;;;9.90;99.90;;;;;;4947861;28;20038;-73
2024/02/11 09:42:46;;;;;;;56.75;33.72;;;9.80;99.90;;;;;;4926370;28;20050;-74
2024/02/11 09:45:16;;;;;;;50.33;31.23;;;9.70;99.90;;;;;;4957449;28;20066;-73
2024/02/11 09:47:49;;;;;;;50.33;30.35;;;9.70;99.90;;;;;;4977351;28;20039;-73
2024/02/11 09:50:21;;;;;;;42.13;29.70;;;9.70;99.90;;;;;;4938964;28;20051;-73
2024/02/11 09:52:49;;;;;;;38.05;25.05;;;9.70;99.90;;;;;;4927566;28;20059;-74
2024/02/11 09:55:19;;;;;;;39.60;24.95;;;9.60;99.90;;;;;;4936165;28;20060;-71
2024/02/11 09:57:47;;;;;;;39.70;23.80;;;9.60;99.90;;;;;;4920687;28;20063;-72
2024/02/11 10:00:15;;;;;;;31.30;21.25;;;9.60;99.90;;;;;;4922717;28;20051;-71
2024/02/11 10:02:44;;;;;;;29.63;19.02;;;9.60;99.90;;;;;;4920471;28;20047;-74
2024/02/11 10:05:13;;;;;;;24.85;16.67;;;9.60;99.90;;;;;;4927668;28;20048;-72
2024/02/11 10:07:44;;;;;;;28.08;18.13;;;9.60;99.90;;;;;;4938752;28;20134;-72
2024/02/11 10:10:14;;;;;;;22.83;16.23;;;9.60;99.90;;;;;;4941087;28;20743;-72
2024/02/11 10:12:42;;;;;;;24.02;17.27;;;9.60;99.90;;;;;;4936807;28;20047;-72
2024/02/11 10:15:13;;;;;;;23.80;17.58;;;9.60;99.90;;;;;;4955951;28;20072;-73
2024/02/11 10:17:41;;;;;;;29.35;19.63;;;9.60;99.90;;;;;;4917790;28;20427;-72
2024/02/11 10:20:12;;;;;;;23.30;16.15;;;9.50;99.90;;;;;;4962400;28;20051;-72
2024/02/11 10:22:40;;;;;;;15.77;13.13;;;9.50;99.90;;;;;;4922409;28;20613;-73
2024/02/11 10:25:09;;;;;;;16.13;12.60;;;9.50;99.90;;;;;;4928162;28;20354;-72
2024/02/11 10:27:37;;;;;;;18.48;12.55;;;9.40;99.90;;;;;;4937725;28;20047;-72
2024/02/11 10:30:09;;;;;;;14.88;12.70;;;9.40;99.90;;;;;;4940801;28;20203;-73
2024/02/11 10:32:39;;;;;;;17.58;13.27;;;9.20;99.90;;;;;;4941204;28;20046;-72
2024/02/11 10:35:07;;;;;;;13.95;11.82;;;9.10;99.90;;;;;;4939292;28;20061;-72
2024/02/11 10:37:48;;;;;;;19.65;10.65;;;9.10;99.90;;;;;;4939308;28;20109;-72
2024/02/11 10:40:20;;;;;;;33.28;18.55;;;9.00;99.90;;;;;;4945961;28;20043;-72
2024/02/11 10:42:50;;;;;;;19.15;11.43;;;8.90;99.90;;;;;;4939850;28;20042;-73
2024/02/11 10:45:17;;;;;;;13.00;9.32;;;8.80;99.90;;;;;;4944688;28;20137;-73
2024/02/11 10:47:44;;;;;;;16.02;9.43;;;8.80;99.90;;;;;;4951850;28;20074;-73
2024/02/11 10:50:10;;;;;;;18.13;9.75;;;8.70;99.90;;;;;;4934547;28;20042;-73
2024/02/11 10:52:47;;;;;;;20.58;9.13;;;8.70;99.90;;;;;;4929514;28;20597;-72
2024/02/11 10:55:18;;;;;;;23.95;10.88;;;8.60;99.90;;;;;;4929832;28;20121;-72
2024/02/11 10:57:49;;;;;;;15.75;8.40;;;8.50;99.90;;;;;;4948543;28;20629;-72
2024/02/11 11:00:20;;;;;;;17.38;8.80;;;8.40;99.90;;;;;;4947470;28;20156;-72
2024/02/11 11:02:56;;;;;;;17.25;9.30;;;8.40;99.90;;;;;;4925587;28;20165;-72
2024/02/11 11:05:27;;;;;;;17.88;9.38;;;8.40;99.90;;;;;;4926160;28;20035;-72
2024/02/11 11:07:56;;;;;;;15.05;9.38;;;8.40;99.90;;;;;;4939351;28;20039;-73
2024/02/11 11:10:27;;;;;;;17.70;9.45;;;8.40;99.90;;;;;;4944106;28;20043;-72
2024/02/11 11:12:55;;;;;;;22.45;10.40;;;8.40;99.90;;;;;;4939555;28;20062;-73
2024/02/11 11:15:22;;;;;;;20.33;9.10;;;8.50;99.90;;;;;;4939754;28;20075;-73
2024/02/11 11:17:49;;;;;;;23.88;12.20;;;8.50;99.90;;;;;;4917512;28;20071;-73
2024/02/11 11:20:18;;;;;;;27.35;12.13;;;8.50;99.90;;;;;;4911986;28;20086;-73
2024/02/11 11:22:53;;;;;;;21.55;10.32;;;8.50;99.90;;;;;;4926485;28;20040;-73
2024/02/11 11:25:23;;;;;;;16.70;9.27;;;8.50;99.90;;;;;;4921631;28;20071;-73
2024/02/11 11:27:50;;;;;;;18.42;9.65;;;8.40;99.90;;;;;;4939589;28;20578;-73
2024/02/11 11:30:18;;;;;;;27.30;9.73;;;8.40;99.90;;;;;;4929757;28;20415;-73
2024/02/11 11:32:47;;;;;;;19.90;8.80;;;8.40;99.90;;;;;;4922553;28;20055;-72
2024/02/11 11:35:15;;;;;;;14.52;8.38;;;8.40;99.90;;;;;;4929821;28;20040;-72
2024/02/11 11:37:46;;;;;;;21.20;11.48;;;8.40;99.90;;;;;;4926733;28;20692;-74
2024/02/11 11:40:15;;;;;;;18.80;9.98;;;8.40;99.90;;;;;;4941302;28;20047;-73
2024/02/11 11:42:42;;;;;;;17.33;11.52;;;8.50;99.90;;;;;;4942607;28;20038;-73
2024/02/11 11:45:10;;;;;;;21.38;10.63;;;8.50;99.90;;;;;;4941510;28;20672;-73
2024/02/11 11:47:38;;;;;;;23.65;10.40;;;8.50;99.90;;;;;;4917666;28;20047;-72
2024/02/11 11:50:06;;;;;;;22.38;11.00;;;8.50;99.90;;;;;;4941460;28;20066;-73
2024/02/11 11:52:33;;;;;;;26.38;10.77;;;8.50;99.90;;;;;;4952243;28;20062;-73
2024/02/11 11:55:04;;;;;;;20.88;10.82;;;8.50;99.90;;;;;;4946463;28;20129;-73
2024/02/11 11:57:32;;;;;;;16.65;11.18;;;8.60;99.90;;;;;;4925905;28;20145;-73
2024/02/11 12:00:01;;;;;;;24.30;11.32;;;8.60;99.90;;;;;;4930789;28;20062;-72
2024/02/11 12:02:38;;;;;;;22.42;11.10;;;8.60;99.90;;;;;;4942252;28;20130;-74
2024/02/11 12:05:08;;;;;;;21.95;11.32;;;8.60;99.90;;;;;;4954015;28;20059;-73
2024/02/11 12:07:35;;;;;;;27.13;12.68;;;8.60;99.90;;;;;;4932039;28;20468;-72
2024/02/11 12:10:04;;;;;;;26.02;13.70;;;8.60;99.90;;;;;;4925957;28;20053;-73
2024/02/11 12:12:32;;;;;;;19.70;12.77;;;8.60;99.90;;;;;;4949296;28;20142;-73
2024/02/11 12:14:59;;;;;;;21.98;13.20;;;8.70;99.90;;;;;;4951691;28;20075;-73
2024/02/11 12:17:27;;;;;;;21.73;13.38;;;8.60;99.90;;;;;;4946155;28;20043;-73
2024/02/11 12:19:56;;;;;;;22.35;12.55;;;8.70;99.90;;;;;;4963094;28;23183;-74
2024/02/11 12:22:25;;;;;;;17.75;11.32;;;8.70;99.90;;;;;;4944300;28;20426;-73
2024/02/11 12:24:52;;;;;;;16.08;11.55;;;8.70;99.90;;;;;;4945104;28;20767;-72
2024/02/11 12:27:19;;;;;;;20.27;10.75;;;8.70;99.90;;;;;;4949754;28;20050;-74
2024/02/11 12:29:58;;;;;;;17.98;11.25;;;8.70;99.90;;;;;;4941083;28;20055;-72
2024/02/11 12:32:26;;;;;;;16.92;12.07;;;8.60;99.90;;;;;;4945572;28;20059;-73
2024/02/11 12:34:58;;;;;;;31.63;14.07;;;8.60;99.90;;;;;;4950465;28;20502;-72
2024/02/11 12:37:25;;;;;;;18.90;12.30;;;8.60;99.90;;;;;;4947855;28;20540;-74
2024/02/11 12:39:56;;;;;;;13.57;10.30;;;8.70;99.90;;;;;;4947375;28;20051;-72
2024/02/11 12:42:25;;;;;;;18.25;9.63;;;8.60;99.90;;;;;;4952173;28;20049;-72